sensor_id;sensor_type;location;lat;lon;timestamp;temperature;humidity
7028;DHT22;3555;53.248;10.336;2023-04-29T00:00:14;10.40;99.90
7028;DHT22;3555;53.248;10.336;2023-04-29T00:02:42;10.40;99.90
7028;DHT22;3555;53.248;10.336;2023-04-29T00:05:09;10.40;99.90
7028;DHT22;3555;53.248;10.336;2023-04-29T00:07:36;10.40;99.90
7028;DHT22;3555;53.248;10.336;2023-04-29T00:10:03;10.40;99.90
7028;DHT22;3555;53.248;10.336;2023-04-29T00:12:30;10.40;99.90
7028;DHT22;3555;53.248;10.336;2023-04-29T00:14:58;10.40;99.90
7028;DHT22;3555;53.248;10.336;2023-04-29T00:17:26;10.40;99.90
7028;DHT22;3555;53.248;10.336;2023-04-29T00:19:53;10.30;99.90
7028;DHT22;3555;53.248;10.336;2023-04-29T00:22:20;10.30;99.90
7028;DHT22;3555;53.248;10.336;2023-04-29T00:24:47;10.20;99.90
7028;DHT22;3555;53.248;10.336;2023-04-29T00:27:15;10.30;99.90
7028;DHT22;3555;53.248;10.336;2023-04-29T00:29:42;10.30;99.90
7028;DHT22;3555;53.248;10.336;2023-04-29T00:32:09;10.30;99.90
7028;DHT22;3555;53.248;10.336;2023-04-29T00:34:37;10.30;99.90
7028;DHT22;3555;53.248;10.336;2023-04-29T00:37:04;10.40;99.90
7028;DHT22;3555;53.248;10.336;2023-04-29T00:39:31;10.30;99.90
7028;DHT22;3555;53.248;10.336;2023-04-29T00:41:58;10.40;99.90
7028;DHT22;3555;53.248;10.336;2023-04-29T00:44:25;10.40;99.90
7028;DHT22;3555;53.248;10.336;2023-04-29T00:46:52;10.30;99.90
7028;DHT22;3555;53.248;10.336;2023-04-29T00:49:19;10.20;99.90
7028;DHT22;3555;53.248;10.336;2023-04-29T00:51:48;10.30;99.90
7028;DHT22;3555;53.248;10.336;2023-04-29T00:54:16;10.20;99.90
7028;DHT22;3555;53.248;10.336;2023-04-29T00:56:44;10.20;99.90
7028;DHT22;3555;53.248;10.336;2023-04-29T00:59:12;10.20;99.90
7028;DHT22;3555;53.248;10.336;2023-04-29T01:01:40;10.30;99.90
7028;DHT22;3555;53.248;10.336;2023-04-29T01:04:07;10.30;99.90
7028;DHT22;3555;53.248;10.336;2023-04-29T01:06:48;10.30;99.90
7028;DHT22;3555;53.248;10.336;2023-04-29T01:09:28;10.30;99.90
7028;DHT22;3555;53.248;10.336;2023-04-29T01:12:07;10.20;99.90
7028;DHT22;3555;53.248;10.336;2023-04-29T01:14:38;10.20;99.90
7028;DHT22;3555;53.248;10.336;2023-04-29T01:17:09;10.20;99.90
7028;DHT22;3555;53.248;10.336;2023-04-29T01:19:44;10.10;99.90
7028;DHT22;3555;53.248;10.336;2023-04-29T01:22:12;10.10;99.90
7028;DHT22;3555;53.248;10.336;2023-04-29T01:24:43;10.10;99.90
7028;DHT22;3555;53.248;10.336;2023-04-29T01:27:16;10.10;99.90
7028;DHT22;3555;53.248;10.336;2023-04-29T01:29:52;10.10;99.90
7028;DHT22;3555;53.248;10.336;2023-04-29T01:32:25;9.90;99.90
7028;DHT22;3555;53.248;10.336;2023-04-29T01:35:02;10.00;99.90
7028;DHT22;3555;53.248;10.336;2023-04-29T01:37:34;10.10;99.90
7028;DHT22;3555;53.248;10.336;2023-04-29T01:40:10;10.00;99.90
7028;DHT22;3555;53.248;10.336;2023-04-29T01:42:41;10.10;99.90
7028;DHT22;3555;53.248;10.336;2023-04-29T01:45:10;10.10;99.90
7028;DHT22;3555;53.248;10.336;2023-04-29T01:47:40;10.10;99.90
7028;DHT22;3555;53.248;10.336;2023-04-29T01:50:08;10.20;99.90
7028;DHT22;3555;53.248;10.336;2023-04-29T01:52:35;10.20;99.90
7028;DHT22;3555;53.248;10.336;2023-04-29T01:55:02;10.20;99.90
7028;DHT22;3555;53.248;10.336;2023-04-29T01:57:31;10.20;99.90
7028;DHT22;3555;53.248;10.336;2023-04-29T01:59:58;10.20;99.90
7028;DHT22;3555;53.248;10.336;2023-04-29T02:02:26;10.20;99.90
7028;DHT22;3555;53.248;10.336;2023-04-29T02:04:53;10.20;99.90
7028;DHT22;3555;53.248;10.336;2023-04-29T02:07:20;10.20;99.90
7028;DHT22;3555;53.248;10.336;2023-04-29T02:09:48;10.20;99.90
7028;DHT22;3555;53.248;10.336;2023-04-29T02:12:14;10.20;99.90
7028;DHT22;3555;53.248;10.336;2023-04-29T02:14:43;10.20;99.90
7028;DHT22;3555;53.248;10.336;2023-04-29T02:17:12;10.20;99.90
7028;DHT22;3555;53.248;10.336;2023-04-29T02:19:39;10.20;99.90
7028;DHT22;3555;53.248;10.336;2023-04-29T02:22:05;10.30;99.90
7028;DHT22;3555;53.248;10.336;2023-04-29T02:24:32;10.30;99.90
7028;DHT22;3555;53.248;10.336;2023-04-29T02:26:59;10.30;99.90
7028;DHT22;3555;53.248;10.336;2023-04-29T02:29:30;10.40;99.90
7028;DHT22;3555;53.248;10.336;2023-04-29T02:31:59;10.40;99.90
7028;DHT22;3555;53.248;10.336;2023-04-29T02:34:26;10.40;99.90
7028;DHT22;3555;53.248;10.336;2023-04-29T02:36:53;10.50;99.90
7028;DHT22;3555;53.248;10.336;2023-04-29T02:39:20;10.40;99.90
7028;DHT22;3555;53.248;10.336;2023-04-29T02:41:47;10.40;99.90
7028;DHT22;3555;53.248;10.336;2023-04-29T02:44:14;10.40;99.90
7028;DHT22;3555;53.248;10.336;2023-04-29T02:46:41;10.50;99.90
7028;DHT22;3555;53.248;10.336;2023-04-29T02:49:12;10.50;99.90
7028;DHT22;3555;53.248;10.336;2023-04-29T02:51:39;10.50;99.90
7028;DHT22;3555;53.248;10.336;2023-04-29T02:54:06;10.50;99.90
7028;DHT22;3555;53.248;10.336;2023-04-29T02:56:33;10.50;99.90
7028;DHT22;3555;53.248;10.336;2023-04-29T02:59:00;10.60;99.90
7028;DHT22;3555;53.248;10.336;2023-04-29T03:01:27;10.60;99.90
7028;DHT22;3555;53.248;10.336;2023-04-29T03:03:54;10.60;99.90
7028;DHT22;3555;53.248;10.336;2023-04-29T03:06:23;10.60;99.90
7028;DHT22;3555;53.248;10.336;2023-04-29T03:08:50;10.70;99.90
7028;DHT22;3555;53.248;10.336;2023-04-29T03:11:17;10.70;99.90
7028;DHT22;3555;53.248;10.336;2023-04-29T03:13:44;10.70;99.90
7028;DHT22;3555;53.248;10.336;2023-04-29T03:16:12;10.80;99.90
7028;DHT22;3555;53.248;10.336;2023-04-29T03:18:41;10.70;99.90
7028;DHT22;3555;53.248;10.336;2023-04-29T03:21:08;10.70;99.90
7028;DHT22;3555;53.248;10.336;2023-04-29T03:23:36;10.60;99.90
7028;DHT22;3555;53.248;10.336;2023-04-29T03:26:04;10.60;99.90
7028;DHT22;3555;53.248;10.336;2023-04-29T03:28:31;10.60;99.90
7028;DHT22;3555;53.248;10.336;2023-04-29T03:30:58;10.60;99.90
7028;DHT22;3555;53.248;10.336;2023-04-29T03:33:25;10.60;99.90
7028;DHT22;3555;53.248;10.336;2023-04-29T03:35:52;10.60;99.90
7028;DHT22;3555;53.248;10.336;2023-04-29T03:38:19;10.60;99.90
7028;DHT22;3555;53.248;10.336;2023-04-29T03:40:47;10.40;99.90
7028;DHT22;3555;53.248;10.336;2023-04-29T03:43:14;10.40;99.90
7028;DHT22;3555;53.248;10.336;2023-04-29T03:45:41;10.50;99.90
7028;DHT22;3555;53.248;10.336;2023-04-29T03:48:08;10.50;99.90
7028;DHT22;3555;53.248;10.336;2023-04-29T03:50:35;10.40;99.90
7028;DHT22;3555;53.248;10.336;2023-04-29T03:53:02;10.50;99.90
7028;DHT22;3555;53.248;10.336;2023-04-29T03:55:29;10.40;99.90
7028;DHT22;3555;53.248;10.336;2023-04-29T03:57:57;10.50;99.90
7028;DHT22;3555;53.248;10.336;2023-04-29T04:00:24;10.50;99.90
7028;DHT22;3555;53.248;10.336;2023-04-29T04:02:51;10.40;99.90
7028;DHT22;3555;53.248;10.336;2023-04-29T04:05:18;10.50;99.90
7028;DHT22;3555;53.248;10.336;2023-04-29T04:07:45;10.50;99.90
7028;DHT22;3555;53.248;10.336;2023-04-29T04:10:12;10.50;99.90
7028;DHT22;3555;53.248;10.336;2023-04-29T04:12:39;10.50;99.90
7028;DHT22;3555;53.248;10.336;2023-04-29T04:15:08;10.50;99.90
7028;DHT22;3555;53.248;10.336;2023-04-29T04:17:35;10.50;99.90
7028;DHT22;3555;53.248;10.336;2023-04-29T04:20:02;10.50;99.90
7028;DHT22;3555;53.248;10.336;2023-04-29T04:22:30;10.50;99.90
7028;DHT22;3555;53.248;10.336;2023-04-29T04:24:56;10.50;99.90
7028;DHT22;3555;53.248;10.336;2023-04-29T04:27:23;10.50;99.90
7028;DHT22;3555;53.248;10.336;2023-04-29T04:29:52;10.50;99.90
7028;DHT22;3555;53.248;10.336;2023-04-29T04:32:21;10.40;99.90
7028;DHT22;3555;53.248;10.336;2023-04-29T04:34:48;10.50;99.90
7028;DHT22;3555;53.248;10.336;2023-04-29T04:37:15;10.30;99.90
7028;DHT22;3555;53.248;10.336;2023-04-29T04:39:43;10.30;99.90
7028;DHT22;3555;53.248;10.336;2023-04-29T04:42:10;10.30;99.90
7028;DHT22;3555;53.248;10.336;2023-04-29T04:44:36;10.30;99.90
7028;DHT22;3555;53.248;10.336;2023-04-29T04:47:03;10.20;99.90
7028;DHT22;3555;53.248;10.336;2023-04-29T04:49:32;10.20;99.90
7028;DHT22;3555;53.248;10.336;2023-04-29T04:51:59;10.20;99.90
7028;DHT22;3555;53.248;10.336;2023-04-29T04:54:26;10.10;99.90
7028;DHT22;3555;53.248;10.336;2023-04-29T04:56:53;10.10;99.90
7028;DHT22;3555;53.248;10.336;2023-04-29T04:59:20;10.10;99.90
7028;DHT22;3555;53.248;10.336;2023-04-29T05:01:46;10.10;99.90
7028;DHT22;3555;53.248;10.336;2023-04-29T05:04:13;10.00;99.90
7028;DHT22;3555;53.248;10.336;2023-04-29T05:06:42;10.00;99.90
7028;DHT22;3555;53.248;10.336;2023-04-29T05:09:09;10.10;99.90
7028;DHT22;3555;53.248;10.336;2023-04-29T05:11:36;10.10;99.90
7028;DHT22;3555;53.248;10.336;2023-04-29T05:14:02;10.10;99.90
7028;DHT22;3555;53.248;10.336;2023-04-29T05:16:29;10.10;99.90
7028;DHT22;3555;53.248;10.336;2023-04-29T05:18:56;10.10;99.90
7028;DHT22;3555;53.248;10.336;2023-04-29T05:21:23;10.20;99.90
7028;DHT22;3555;53.248;10.336;2023-04-29T05:23:51;10.20;99.90
7028;DHT22;3555;53.248;10.336;2023-04-29T05:26:18;10.20;99.90
7028;DHT22;3555;53.248;10.336;2023-04-29T05:28:45;10.20;99.90
7028;DHT22;3555;53.248;10.336;2023-04-29T05:31:12;10.20;99.90
7028;DHT22;3555;53.248;10.336;2023-04-29T05:33:39;10.30;99.90
7028;DHT22;3555;53.248;10.336;2023-04-29T05:36:06;10.20;99.90
7028;DHT22;3555;53.248;10.336;2023-04-29T05:38:33;10.20;99.90
7028;DHT22;3555;53.248;10.336;2023-04-29T05:41:01;10.20;99.90
7028;DHT22;3555;53.248;10.336;2023-04-29T05:43:29;10.20;99.90
7028;DHT22;3555;53.248;10.336;2023-04-29T05:45:55;10.20;99.90
7028;DHT22;3555;53.248;10.336;2023-04-29T05:48:22;10.20;99.90
7028;DHT22;3555;53.248;10.336;2023-04-29T05:50:49;10.20;99.90
7028;DHT22;3555;53.248;10.336;2023-04-29T05:53:16;10.20;99.90
7028;DHT22;3555;53.248;10.336;2023-04-29T05:55:43;10.10;99.90
7028;DHT22;3555;53.248;10.336;2023-04-29T05:58:12;10.10;99.90
7028;DHT22;3555;53.248;10.336;2023-04-29T06:00:39;10.20;99.90
7028;DHT22;3555;53.248;10.336;2023-04-29T06:03:08;10.10;99.90
7028;DHT22;3555;53.248;10.336;2023-04-29T06:05:35;10.20;99.90
7028;DHT22;3555;53.248;10.336;2023-04-29T06:08:03;10.20;99.90
7028;DHT22;3555;53.248;10.336;2023-04-29T06:10:30;10.20;99.90
7028;DHT22;3555;53.248;10.336;2023-04-29T06:12:57;10.20;99.90
7028;DHT22;3555;53.248;10.336;2023-04-29T06:15:26;10.20;99.90
7028;DHT22;3555;53.248;10.336;2023-04-29T06:17:53;10.10;99.90
7028;DHT22;3555;53.248;10.336;2023-04-29T06:20:20;10.20;99.90
7028;DHT22;3555;53.248;10.336;2023-04-29T06:22:47;10.30;99.90
7028;DHT22;3555;53.248;10.336;2023-04-29T06:25:14;10.30;99.90
7028;DHT22;3555;53.248;10.336;2023-04-29T06:27:41;10.20;99.90
7028;DHT22;3555;53.248;10.336;2023-04-29T06:30:08;10.30;99.90
7028;DHT22;3555;53.248;10.336;2023-04-29T06:32:37;10.30;99.90
7028;DHT22;3555;53.248;10.336;2023-04-29T06:35:05;10.40;99.90
7028;DHT22;3555;53.248;10.336;2023-04-29T06:37:32;10.50;99.90
7028;DHT22;3555;53.248;10.336;2023-04-29T06:39:59;10.80;99.90
7028;DHT22;3555;53.248;10.336;2023-04-29T06:42:26;11.40;99.90
7028;DHT22;3555;53.248;10.336;2023-04-29T06:44:53;11.40;99.90
7028;DHT22;3555;53.248;10.336;2023-04-29T06:47:20;11.80;99.90
7028;DHT22;3555;53.248;10.336;2023-04-29T06:49:48;12.30;99.90
7028;DHT22;3555;53.248;10.336;2023-04-29T06:52:15;12.70;99.90
7028;DHT22;3555;53.248;10.336;2023-04-29T06:54:42;13.10;99.90
7028;DHT22;3555;53.248;10.336;2023-04-29T06:57:09;13.50;1.00
7028;DHT22;3555;53.248;10.336;2023-04-29T06:59:36;13.90;99.90
7028;DHT22;3555;53.248;10.336;2023-04-29T07:02:02;14.20;1.00
7028;DHT22;3555;53.248;10.336;2023-04-29T07:04:29;14.50;34.50
7028;DHT22;3555;53.248;10.336;2023-04-29T07:06:57;14.70;1.00
7028;DHT22;3555;53.248;10.336;2023-04-29T07:09:24;14.90;1.00
7028;DHT22;3555;53.248;10.336;2023-04-29T07:11:52;15.20;99.90
7028;DHT22;3555;53.248;10.336;2023-04-29T07:14:20;15.50;1.00
7028;DHT22;3555;53.248;10.336;2023-04-29T07:16:52;15.70;1.00
7028;DHT22;3555;53.248;10.336;2023-04-29T07:19:19;16.00;1.00
7028;DHT22;3555;53.248;10.336;2023-04-29T07:21:46;16.30;99.90
7028;DHT22;3555;53.248;10.336;2023-04-29T07:24:14;16.60;99.90
7028;DHT22;3555;53.248;10.336;2023-04-29T07:26:42;16.90;1.00
7028;DHT22;3555;53.248;10.336;2023-04-29T07:29:09;17.00;1.00
7028;DHT22;3555;53.248;10.336;2023-04-29T07:31:36;17.20;1.00
7028;DHT22;3555;53.248;10.336;2023-04-29T07:34:03;17.30;1.00
7028;DHT22;3555;53.248;10.336;2023-04-29T07:36:30;17.40;1.00
7028;DHT22;3555;53.248;10.336;2023-04-29T07:38:57;17.60;1.00
7028;DHT22;3555;53.248;10.336;2023-04-29T07:41:26;17.70;1.00
7028;DHT22;3555;53.248;10.336;2023-04-29T07:43:53;17.90;1.00
7028;DHT22;3555;53.248;10.336;2023-04-29T07:46:20;17.90;99.90
7028;DHT22;3555;53.248;10.336;2023-04-29T07:48:46;18.00;99.90
7028;DHT22;3555;53.248;10.336;2023-04-29T07:51:14;18.00;99.90
7028;DHT22;3555;53.248;10.336;2023-04-29T07:53:41;17.90;99.90
7028;DHT22;3555;53.248;10.336;2023-04-29T07:56:08;18.00;99.90
7028;DHT22;3555;53.248;10.336;2023-04-29T07:58:36;18.00;99.90
7028;DHT22;3555;53.248;10.336;2023-04-29T08:01:07;18.10;99.90
7028;DHT22;3555;53.248;10.336;2023-04-29T08:03:34;18.20;99.90
7028;DHT22;3555;53.248;10.336;2023-04-29T08:06:02;18.40;99.90
7028;DHT22;3555;53.248;10.336;2023-04-29T08:08:29;18.50;90.90
7028;DHT22;3555;53.248;10.336;2023-04-29T08:10:56;18.70;27.70
7028;DHT22;3555;53.248;10.336;2023-04-29T08:13:23;18.80;99.90
7028;DHT22;3555;53.248;10.336;2023-04-29T08:15:52;18.90;1.00
7028;DHT22;3555;53.248;10.336;2023-04-29T08:18:18;19.10;67.80
7028;DHT22;3555;53.248;10.336;2023-04-29T08:20:46;19.30;1.00
7028;DHT22;3555;53.248;10.336;2023-04-29T08:23:13;19.40;1.00
7028;DHT22;3555;53.248;10.336;2023-04-29T08:25:41;19.30;1.00
7028;DHT22;3555;53.248;10.336;2023-04-29T08:28:08;19.50;1.00
7028;DHT22;3555;53.248;10.336;2023-04-29T08:30:37;19.60;1.00
7028;DHT22;3555;53.248;10.336;2023-04-29T08:33:05;19.60;1.00
7028;DHT22;3555;53.248;10.336;2023-04-29T08:35:33;19.70;1.00
7028;DHT22;3555;53.248;10.336;2023-04-29T08:38:02;19.80;1.00
7028;DHT22;3555;53.248;10.336;2023-04-29T08:40:32;19.80;1.00
7028;DHT22;3555;53.248;10.336;2023-04-29T08:43:00;20.00;1.00
7028;DHT22;3555;53.248;10.336;2023-04-29T08:45:27;20.10;1.00
7028;DHT22;3555;53.248;10.336;2023-04-29T08:47:55;20.10;1.00
7028;DHT22;3555;53.248;10.336;2023-04-29T08:50:24;20.10;1.00
7028;DHT22;3555;53.248;10.336;2023-04-29T08:52:52;20.10;1.00
7028;DHT22;3555;53.248;10.336;2023-04-29T08:55:19;20.10;1.00
7028;DHT22;3555;53.248;10.336;2023-04-29T08:57:49;20.10;1.00
7028;DHT22;3555;53.248;10.336;2023-04-29T09:00:16;20.20;1.00
7028;DHT22;3555;53.248;10.336;2023-04-29T09:02:46;20.10;1.00
7028;DHT22;3555;53.248;10.336;2023-04-29T09:05:15;20.10;1.00
7028;DHT22;3555;53.248;10.336;2023-04-29T09:07:43;20.20;1.00
7028;DHT22;3555;53.248;10.336;2023-04-29T09:10:11;20.30;1.00
7028;DHT22;3555;53.248;10.336;2023-04-29T09:12:39;20.50;1.00
7028;DHT22;3555;53.248;10.336;2023-04-29T09:15:07;20.60;1.00
7028;DHT22;3555;53.248;10.336;2023-04-29T09:17:38;20.60;1.00
7028;DHT22;3555;53.248;10.336;2023-04-29T09:20:25;20.70;1.00
7028;DHT22;3555;53.248;10.336;2023-04-29T09:22:55;20.70;1.00
7028;DHT22;3555;53.248;10.336;2023-04-29T09:25:22;20.90;1.00
7028;DHT22;3555;53.248;10.336;2023-04-29T09:27:49;21.10;1.00
7028;DHT22;3555;53.248;10.336;2023-04-29T09:30:16;21.00;1.00
7028;DHT22;3555;53.248;10.336;2023-04-29T09:32:44;21.10;1.00
7028;DHT22;3555;53.248;10.336;2023-04-29T09:35:22;21.10;1.00
7028;DHT22;3555;53.248;10.336;2023-04-29T09:37:49;21.20;1.00
7028;DHT22;3555;53.248;10.336;2023-04-29T09:40:28;21.40;1.00
7028;DHT22;3555;53.248;10.336;2023-04-29T09:42:56;21.50;1.00
7028;DHT22;3555;53.248;10.336;2023-04-29T09:45:36;21.50;1.00
7028;DHT22;3555;53.248;10.336;2023-04-29T09:48:04;21.60;1.00
7028;DHT22;3555;53.248;10.336;2023-04-29T09:50:31;21.60;1.00
7028;DHT22;3555;53.248;10.336;2023-04-29T09:52:58;21.80;1.00
7028;DHT22;3555;53.248;10.336;2023-04-29T09:55:25;21.50;1.00
7028;DHT22;3555;53.248;10.336;2023-04-29T09:57:54;21.40;1.00
7028;DHT22;3555;53.248;10.336;2023-04-29T10:00:21;21.30;1.00
7028;DHT22;3555;53.248;10.336;2023-04-29T10:02:48;21.30;1.00
7028;DHT22;3555;53.248;10.336;2023-04-29T10:05:16;21.40;1.00
7028;DHT22;3555;53.248;10.336;2023-04-29T10:07:45;21.60;1.00
7028;DHT22;3555;53.248;10.336;2023-04-29T10:10:14;21.60;1.00
7028;DHT22;3555;53.248;10.336;2023-04-29T10:12:41;21.70;1.00
7028;DHT22;3555;53.248;10.336;2023-04-29T10:15:19;21.80;1.00
7028;DHT22;3555;53.248;10.336;2023-04-29T10:17:51;21.90;1.00
7028;DHT22;3555;53.248;10.336;2023-04-29T10:20:22;22.20;1.00
7028;DHT22;3555;53.248;10.336;2023-04-29T10:22:50;22.40;1.00
7028;DHT22;3555;53.248;10.336;2023-04-29T10:25:21;22.60;1.00
7028;DHT22;3555;53.248;10.336;2023-04-29T10:27:49;22.70;1.00
7028;DHT22;3555;53.248;10.336;2023-04-29T10:30:20;22.80;1.00
7028;DHT22;3555;53.248;10.336;2023-04-29T10:32:48;22.90;1.00
7028;DHT22;3555;53.248;10.336;2023-04-29T10:35:17;23.20;1.00
7028;DHT22;3555;53.248;10.336;2023-04-29T10:37:46;23.30;1.00
7028;DHT22;3555;53.248;10.336;2023-04-29T10:40:15;23.30;1.00
7028;DHT22;3555;53.248;10.336;2023-04-29T10:42:45;23.60;1.00
7028;DHT22;3555;53.248;10.336;2023-04-29T10:45:24;23.50;1.00
7028;DHT22;3555;53.248;10.336;2023-04-29T10:48:11;23.30;1.00
7028;DHT22;3555;53.248;10.336;2023-04-29T10:51:00;23.20;1.00
7028;DHT22;3555;53.248;10.336;2023-04-29T10:53:28;23.40;1.00
7028;DHT22;3555;53.248;10.336;2023-04-29T10:55:57;23.10;1.00
7028;DHT22;3555;53.248;10.336;2023-04-29T10:58:36;23.00;1.00
7028;DHT22;3555;53.248;10.336;2023-04-29T11:01:05;23.10;1.00
7028;DHT22;3555;53.248;10.336;2023-04-29T11:03:51;23.00;1.00
7028;DHT22;3555;53.248;10.336;2023-04-29T11:06:24;23.10;1.00
7028;DHT22;3555;53.248;10.336;2023-04-29T11:09:01;23.00;1.00
7028;DHT22;3555;53.248;10.336;2023-04-29T11:11:46;23.00;1.00
7028;DHT22;3555;53.248;10.336;2023-04-29T11:14:18;22.70;1.00
7028;DHT22;3555;53.248;10.336;2023-04-29T11:16:50;22.70;1.00
7028;DHT22;3555;53.248;10.336;2023-04-29T11:19:18;22.60;1.00
7028;DHT22;3555;53.248;10.336;2023-04-29T11:21:46;22.70;1.00
7028;DHT22;3555;53.248;10.336;2023-04-29T11:24:13;22.80;1.00
7028;DHT22;3555;53.248;10.336;2023-04-29T11:26:42;22.90;1.00
7028;DHT22;3555;53.248;10.336;2023-04-29T11:29:10;22.90;1.00
7028;DHT22;3555;53.248;10.336;2023-04-29T11:31:37;23.10;1.00
7028;DHT22;3555;53.248;10.336;2023-04-29T11:34:06;23.10;1.00
7028;DHT22;3555;53.248;10.336;2023-04-29T11:36:33;23.10;1.00
7028;DHT22;3555;53.248;10.336;2023-04-29T11:39:01;23.00;1.00
7028;DHT22;3555;53.248;10.336;2023-04-29T11:41:29;23.00;1.00
7028;DHT22;3555;53.248;10.336;2023-04-29T11:43:58;23.10;1.00
7028;DHT22;3555;53.248;10.336;2023-04-29T11:46:29;23.00;1.00
7028;DHT22;3555;53.248;10.336;2023-04-29T11:48:57;23.00;1.00
7028;DHT22;3555;53.248;10.336;2023-04-29T11:51:26;22.90;1.00
7028;DHT22;3555;53.248;10.336;2023-04-29T11:53:53;23.00;1.00
7028;DHT22;3555;53.248;10.336;2023-04-29T11:56:21;23.10;1.00
7028;DHT22;3555;53.248;10.336;2023-04-29T11:58:53;23.10;1.00
7028;DHT22;3555;53.248;10.336;2023-04-29T12:01:20;22.80;1.00
7028;DHT22;3555;53.248;10.336;2023-04-29T12:03:48;22.70;1.00
7028;DHT22;3555;53.248;10.336;2023-04-29T12:06:15;22.70;1.00
7028;DHT22;3555;53.248;10.336;2023-04-29T12:08:46;22.60;1.00
7028;DHT22;3555;53.248;10.336;2023-04-29T12:11:13;22.60;1.00
7028;DHT22;3555;53.248;10.336;2023-04-29T12:13:40;22.60;1.00
7028;DHT22;3555;53.248;10.336;2023-04-29T12:16:07;22.50;1.00
7028;DHT22;3555;53.248;10.336;2023-04-29T12:18:35;22.50;1.00
7028;DHT22;3555;53.248;10.336;2023-04-29T12:21:03;22.40;1.00
7028;DHT22;3555;53.248;10.336;2023-04-29T12:23:31;22.30;1.00
7028;DHT22;3555;53.248;10.336;2023-04-29T12:25:59;22.50;1.00
7028;DHT22;3555;53.248;10.336;2023-04-29T12:28:27;22.30;1.00
7028;DHT22;3555;53.248;10.336;2023-04-29T12:30:56;22.50;1.00
7028;DHT22;3555;53.248;10.336;2023-04-29T12:33:25;22.60;1.00
7028;DHT22;3555;53.248;10.336;2023-04-29T12:35:54;22.70;1.00
7028;DHT22;3555;53.248;10.336;2023-04-29T12:38:22;22.80;1.00
7028;DHT22;3555;53.248;10.336;2023-04-29T12:40:51;22.90;1.00
7028;DHT22;3555;53.248;10.336;2023-04-29T12:43:25;22.80;1.00
7028;DHT22;3555;53.248;10.336;2023-04-29T12:45:53;22.70;1.00
7028;DHT22;3555;53.248;10.336;2023-04-29T12:48:21;22.60;1.00
7028;DHT22;3555;53.248;10.336;2023-04-29T12:50:48;22.40;1.00
7028;DHT22;3555;53.248;10.336;2023-04-29T12:53:16;22.30;1.00
7028;DHT22;3555;53.248;10.336;2023-04-29T12:55:42;22.40;1.00
7028;DHT22;3555;53.248;10.336;2023-04-29T12:58:09;22.00;1.00
7028;DHT22;3555;53.248;10.336;2023-04-29T13:00:38;22.20;1.00
7028;DHT22;3555;53.248;10.336;2023-04-29T13:03:05;22.20;1.00
7028;DHT22;3555;53.248;10.336;2023-04-29T13:05:32;22.10;1.00
7028;DHT22;3555;53.248;10.336;2023-04-29T13:07:59;22.10;1.00
7028;DHT22;3555;53.248;10.336;2023-04-29T13:10:26;21.80;1.00
7028;DHT22;3555;53.248;10.336;2023-04-29T13:12:53;21.70;1.00
7028;DHT22;3555;53.248;10.336;2023-04-29T13:15:20;21.60;1.00
7028;DHT22;3555;53.248;10.336;2023-04-29T13:17:48;21.70;1.00
7028;DHT22;3555;53.248;10.336;2023-04-29T13:20:16;21.80;1.00
7028;DHT22;3555;53.248;10.336;2023-04-29T13:22:43;22.00;1.00
7028;DHT22;3555;53.248;10.336;2023-04-29T13:25:10;22.00;1.00
7028;DHT22;3555;53.248;10.336;2023-04-29T13:27:38;22.20;1.00
7028;DHT22;3555;53.248;10.336;2023-04-29T13:30:05;22.40;1.00
7028;DHT22;3555;53.248;10.336;2023-04-29T13:32:33;22.30;1.00
7028;DHT22;3555;53.248;10.336;2023-04-29T13:35:01;21.90;1.00
7028;DHT22;3555;53.248;10.336;2023-04-29T13:37:29;21.80;1.00
7028;DHT22;3555;53.248;10.336;2023-04-29T13:39:56;21.70;1.00
7028;DHT22;3555;53.248;10.336;2023-04-29T13:42:23;21.60;1.00
7028;DHT22;3555;53.248;10.336;2023-04-29T13:44:50;21.50;1.00
7028;DHT22;3555;53.248;10.336;2023-04-29T13:47:18;20.90;1.00
7028;DHT22;3555;53.248;10.336;2023-04-29T13:49:45;20.60;1.00
7028;DHT22;3555;53.248;10.336;2023-04-29T13:52:13;20.70;1.00
7028;DHT22;3555;53.248;10.336;2023-04-29T13:54:40;20.70;1.00
7028;DHT22;3555;53.248;10.336;2023-04-29T13:57:07;20.70;1.00
7028;DHT22;3555;53.248;10.336;2023-04-29T13:59:35;20.60;1.00
7028;DHT22;3555;53.248;10.336;2023-04-29T14:02:02;20.70;1.00
7028;DHT22;3555;53.248;10.336;2023-04-29T14:04:29;20.60;1.00
7028;DHT22;3555;53.248;10.336;2023-04-29T14:06:56;20.60;1.00
7028;DHT22;3555;53.248;10.336;2023-04-29T14:09:24;20.60;1.00
7028;DHT22;3555;53.248;10.336;2023-04-29T14:11:51;20.60;1.00
7028;DHT22;3555;53.248;10.336;2023-04-29T14:14:18;20.60;1.00
7028;DHT22;3555;53.248;10.336;2023-04-29T14:16:45;20.50;1.00
7028;DHT22;3555;53.248;10.336;2023-04-29T14:19:12;20.60;1.00
7028;DHT22;3555;53.248;10.336;2023-04-29T14:21:39;20.50;1.00
7028;DHT22;3555;53.248;10.336;2023-04-29T14:24:06;20.50;1.00
7028;DHT22;3555;53.248;10.336;2023-04-29T14:26:34;20.60;1.00
7028;DHT22;3555;53.248;10.336;2023-04-29T14:29:02;20.80;1.00
7028;DHT22;3555;53.248;10.336;2023-04-29T14:31:34;20.80;1.00
7028;DHT22;3555;53.248;10.336;2023-04-29T14:34:03;20.90;1.00
7028;DHT22;3555;53.248;10.336;2023-04-29T14:36:30;20.70;1.00
7028;DHT22;3555;53.248;10.336;2023-04-29T14:38:58;20.70;1.00
7028;DHT22;3555;53.248;10.336;2023-04-29T14:41:25;20.70;1.00
7028;DHT22;3555;53.248;10.336;2023-04-29T14:43:53;20.60;1.00
7028;DHT22;3555;53.248;10.336;2023-04-29T14:46:20;20.40;1.00
7028;DHT22;3555;53.248;10.336;2023-04-29T14:48:47;20.60;1.00
7028;DHT22;3555;53.248;10.336;2023-04-29T14:51:14;20.70;1.00
7028;DHT22;3555;53.248;10.336;2023-04-29T14:53:41;20.80;1.00
7028;DHT22;3555;53.248;10.336;2023-04-29T14:56:08;20.80;1.00
7028;DHT22;3555;53.248;10.336;2023-04-29T14:58:35;20.70;1.00
7028;DHT22;3555;53.248;10.336;2023-04-29T15:01:03;20.60;1.00
7028;DHT22;3555;53.248;10.336;2023-04-29T15:03:30;20.20;1.00
7028;DHT22;3555;53.248;10.336;2023-04-29T15:05:57;20.10;1.00
7028;DHT22;3555;53.248;10.336;2023-04-29T15:08:24;20.20;1.00
7028;DHT22;3555;53.248;10.336;2023-04-29T15:10:51;20.00;1.00
7028;DHT22;3555;53.248;10.336;2023-04-29T15:13:18;19.90;1.00
7028;DHT22;3555;53.248;10.336;2023-04-29T15:15:45;19.90;1.00
7028;DHT22;3555;53.248;10.336;2023-04-29T15:18:13;20.00;1.00
7028;DHT22;3555;53.248;10.336;2023-04-29T15:20:40;19.90;1.00
7028;DHT22;3555;53.248;10.336;2023-04-29T15:23:07;19.70;1.00
7028;DHT22;3555;53.248;10.336;2023-04-29T15:25:34;19.50;1.00
7028;DHT22;3555;53.248;10.336;2023-04-29T15:28:01;19.20;1.00
7028;DHT22;3555;53.248;10.336;2023-04-29T15:30:30;19.00;1.00
7028;DHT22;3555;53.248;10.336;2023-04-29T15:32:57;19.00;1.00
7028;DHT22;3555;53.248;10.336;2023-04-29T15:35:25;18.80;1.00
7028;DHT22;3555;53.248;10.336;2023-04-29T15:37:52;18.80;1.00
7028;DHT22;3555;53.248;10.336;2023-04-29T15:40:19;18.80;1.00
7028;DHT22;3555;53.248;10.336;2023-04-29T15:42:46;18.80;1.00
7028;DHT22;3555;53.248;10.336;2023-04-29T15:45:13;18.60;1.00
7028;DHT22;3555;53.248;10.336;2023-04-29T15:47:40;18.70;1.00
7028;DHT22;3555;53.248;10.336;2023-04-29T15:50:07;18.60;1.00
7028;DHT22;3555;53.248;10.336;2023-04-29T15:52:36;18.70;1.00
7028;DHT22;3555;53.248;10.336;2023-04-29T15:55:03;18.60;1.00
7028;DHT22;3555;53.248;10.336;2023-04-29T15:57:30;18.70;1.00
7028;DHT22;3555;53.248;10.336;2023-04-29T15:59:59;18.60;1.00